createdAt,value
2023-03-18T00:02:23.300Z,97327.19
2023-03-18T00:04:54.180Z,97305.63
2023-03-18T00:07:24.764Z,97311.72
2023-03-18T00:09:55.728Z,97312.31
2023-03-18T00:12:26.301Z,97309.66
2023-03-18T00:14:59.757Z,97304.97
2023-03-18T00:17:30.120Z,97313.56
2023-03-18T00:20:05.851Z,97315.38
2023-03-18T00:22:36.667Z,97308.13
2023-03-18T00:25:09.884Z,97317.19
2023-03-18T00:27:41.297Z,97321.84
2023-03-18T00:30:16.106Z,97317.84
2023-03-18T00:32:46.692Z,97304.13
2023-03-18T00:35:19.620Z,97300.03
2023-03-18T00:37:49.961Z,97295.72
2023-03-18T00:40:27.565Z,97297.16
2023-03-18T00:43:08.135Z,97294.84
2023-03-18T00:45:44.976Z,97294.75
2023-03-18T00:48:15.306Z,97315.91
2023-03-18T00:50:46.956Z,97299.03
2023-03-18T00:53:17.939Z,97289.44
2023-03-18T00:55:48.490Z,97285.69
2023-03-18T00:58:19.037Z,97287.31
2023-03-18T01:00:52.740Z,97294.97
2023-03-18T01:03:25.884Z,97297.47
2023-03-18T01:05:56.512Z,97300.50
2023-03-18T01:08:27.473Z,97288.28
2023-03-18T01:10:57.866Z,97297.31
2023-03-18T01:13:28.623Z,97298.78
2023-03-18T01:16:01.880Z,97292.75
2023-03-18T01:18:34.614Z,97296.78
2023-03-18T01:21:05.586Z,97289.81
2023-03-18T01:23:44.016Z,97310.97
2023-03-18T01:26:14.551Z,97305.22
2023-03-18T01:28:47.676Z,97308.00
2023-03-18T01:31:20.870Z,97305.34
2023-03-18T01:33:52.032Z,97306.75
2023-03-18T01:36:22.822Z,97307.78
2023-03-18T01:39:06.467Z,97297.91
2023-03-18T01:41:38.670Z,97310.66
2023-03-18T01:44:19.335Z,97313.53
2023-03-18T01:46:55.201Z,97308.09
2023-03-18T01:49:35.192Z,97315.53
2023-03-18T01:52:13.069Z,97317.50
2023-03-18T01:54:49.587Z,97316.88
2023-03-18T01:57:20.698Z,97323.34
2023-03-18T01:59:52.200Z,97318.38
2023-03-18T02:02:25.479Z,97322.31
2023-03-18T02:05:00.802Z,97327.16
2023-03-18T02:07:35.499Z,97327.25
2023-03-18T02:10:13.908Z,97324.34
2023-03-18T02:12:48.560Z,97335.41
2023-03-18T02:15:31.427Z,97339.69
2023-03-18T02:18:10.425Z,97325.38
2023-03-18T02:20:55.784Z,97328.72
2023-03-18T02:23:36.838Z,97332.22
2023-03-18T02:26:13.948Z,97328.25
2023-03-18T02:28:48.307Z,97332.22
2023-03-18T02:31:20.610Z,97338.31
2023-03-18T02:33:51.214Z,97327.47
2023-03-18T02:36:25.599Z,97331.00
2023-03-18T02:38:57.562Z,97334.06
2023-03-18T02:41:31.875Z,97331.59
2023-03-18T02:44:05.703Z,97338.72
2023-03-18T02:46:51.943Z,97337.88
2023-03-18T02:49:23.850Z,97342.25
2023-03-18T02:51:54.765Z,97346.47
2023-03-18T02:54:27.972Z,97341.84
2023-03-18T02:57:02.056Z,97354.22
2023-03-18T02:59:35.456Z,97348.97
2023-03-18T03:02:06.631Z,97346.50
2023-03-18T03:04:37.157Z,97348.16
2023-03-18T03:07:08.172Z,97359.66
2023-03-18T03:09:42.873Z,97354.97
2023-03-18T03:12:13.808Z,97356.50
2023-03-18T03:14:51.727Z,97374.97
2023-03-18T03:17:22.903Z,97370.78
2023-03-18T03:19:54.160Z,97371.03
2023-03-18T03:22:24.970Z,97374.56
2023-03-18T03:24:55.419Z,97370.22
2023-03-18T03:27:26.256Z,97376.50
2023-03-18T03:30:00.415Z,97376.50
2023-03-18T03:32:30.871Z,97386.03
2023-03-18T03:35:01.363Z,97391.75
2023-03-18T03:37:32.097Z,97392.88
2023-03-18T03:40:02.844Z,97384.19
2023-03-18T03:42:35.317Z,97386.63
2023-03-18T03:45:10.446Z,97387.13
2023-03-18T03:47:40.978Z,97386.63
2023-03-18T03:50:14.353Z,97383.31
2023-03-18T03:52:45.267Z,97388.81
2023-03-18T03:55:18.529Z,97393.41
2023-03-18T03:57:49.801Z,97399.81
2023-03-18T04:00:27.681Z,97388.78
2023-03-18T04:02:58.384Z,97394.56
2023-03-18T04:05:31.638Z,97393.81
2023-03-18T04:08:03.675Z,97397.69
2023-03-18T04:10:39.599Z,97399.41
2023-03-18T04:13:13.543Z,97402.47
2023-03-18T04:15:48.097Z,97400.81
2023-03-18T04:18:22.212Z,97400.81
2023-03-18T04:20:52.642Z,97395.31
2023-03-18T04:23:33.766Z,97399.75
2023-03-18T04:26:05.476Z,97402.53
2023-03-18T04:28:37.102Z,97400.06
2023-03-18T04:31:12.704Z,97398.53
2023-03-18T04:33:43.768Z,97400.97
2023-03-18T04:36:14.335Z,97405.75
2023-03-18T04:38:46.451Z,97405.47
2023-03-18T04:41:17.181Z,97401.47
2023-03-18T04:43:47.778Z,97406.50
2023-03-18T04:46:21.225Z,97407.47
2023-03-18T04:48:54.963Z,97411.16
2023-03-18T04:51:25.463Z,97405.34
2023-03-18T04:53:56.601Z,97413.34
2023-03-18T04:56:31.454Z,97407.94
2023-03-18T04:59:02.604Z,97403.16
2023-03-18T05:01:39.217Z,97408.50
2023-03-18T05:04:10.444Z,97407.28
2023-03-18T05:06:48.865Z,97400.06
2023-03-18T05:09:19.604Z,97417.75
2023-03-18T05:11:50.238Z,97412.78
2023-03-18T05:14:33.055Z,97413.25
2023-03-18T05:17:07.340Z,97410.81
2023-03-18T05:19:41.170Z,97414.75
2023-03-18T05:22:21.287Z,97418.56
2023-03-18T05:24:56.888Z,97416.41
2023-03-18T05:27:31.934Z,97419.16
2023-03-18T05:30:09.413Z,97420.66
2023-03-18T05:32:55.988Z,97410.97
2023-03-18T05:35:40.371Z,97412.13
2023-03-18T05:38:10.859Z,97412.72
2023-03-18T05:40:41.373Z,97417.09
2023-03-18T05:43:21.923Z,97424.94
2023-03-18T05:45:56.054Z,97424.56
2023-03-18T05:48:39.331Z,97430.00
2023-03-18T05:51:10.348Z,97423.38
2023-03-18T05:53:42.458Z,97430.84
2023-03-18T05:56:30.871Z,97430.94
2023-03-18T05:59:04.036Z,97426.28
2023-03-18T06:01:57.142Z,97429.03
2023-03-18T06:04:31.229Z,97425.88
2023-03-18T06:07:03.266Z,97423.03
2023-03-18T06:09:34.947Z,97431.91
2023-03-18T06:12:06.439Z,97430.94
2023-03-18T06:14:37.410Z,97421.84
2023-03-18T06:17:09.619Z,97429.94
2023-03-18T06:19:42.862Z,97429.34
2023-03-18T06:22:13.486Z,97429.72
2023-03-18T06:24:43.965Z,97429.94
2023-03-18T06:27:14.741Z,97419.28
2023-03-18T06:29:47.702Z,97426.00
2023-03-18T06:32:21.847Z,97425.44
2023-03-18T06:34:55.695Z,97422.78
2023-03-18T06:37:26.873Z,97422.84
2023-03-18T06:39:57.604Z,97423.31
2023-03-18T06:42:28.158Z,97428.31
2023-03-18T06:45:07.416Z,97430.25
2023-03-18T06:47:58.015Z,97435.50
2023-03-18T06:50:32.153Z,97433.16
2023-03-18T06:53:05.624Z,97434.53
2023-03-18T06:55:38.068Z,97431.28
2023-03-18T06:58:09.290Z,97433.34
2023-03-18T07:00:56.859Z,97427.22
2023-03-18T07:03:30.681Z,97430.09
2023-03-18T07:06:04.526Z,97425.31
2023-03-18T07:08:36.101Z,97437.25
2023-03-18T07:11:07.341Z,97433.56
2023-03-18T07:13:40.926Z,97432.41
2023-03-18T07:16:19.090Z,97437.78
2023-03-18T07:18:49.597Z,97439.34
2023-03-18T07:21:22.667Z,97436.88
2023-03-18T07:23:55.569Z,97435.97
2023-03-18T07:26:28.376Z,97448.38
2023-03-18T07:28:58.765Z,97443.84
2023-03-18T07:31:30.206Z,97442.31
2023-03-18T07:34:00.852Z,97438.53
2023-03-18T07:36:33.761Z,97437.50
2023-03-18T07:39:04.090Z,97442.56
2023-03-18T07:41:37.284Z,97437.22
2023-03-18T07:44:08.935Z,97431.38
2023-03-18T07:46:39.632Z,97432.88
2023-03-18T07:49:10.002Z,97431.31
2023-03-18T07:51:43.576Z,97444.09
2023-03-18T07:54:14.416Z,97440.81
2023-03-18T07:56:44.787Z,97442.25
2023-03-18T07:59:18.197Z,97451.28
2023-03-18T08:01:49.152Z,97452.47
2023-03-18T08:04:19.971Z,97447.94
2023-03-18T08:06:53.514Z,97456.56
2023-03-18T08:09:24.310Z,97450.69
2023-03-18T08:11:54.337Z,97459.13
2023-03-18T08:14:24.869Z,97465.34
2023-03-18T08:16:55.357Z,97459.59
2023-03-18T08:19:26.913Z,97454.91
2023-03-18T08:22:00.161Z,97457.38
2023-03-18T08:24:30.818Z,97455.91
2023-03-18T08:27:01.291Z,97455.75
2023-03-18T08:29:32.610Z,97460.94
2023-03-18T08:32:04.039Z,97456.88
2023-03-18T08:34:34.468Z,97457.25
2023-03-18T08:37:08.493Z,97458.41
2023-03-18T08:39:39.778Z,97454.94
2023-03-18T08:42:10.663Z,97460.47
2023-03-18T08:44:41.812Z,97461.00
2023-03-18T08:47:12.302Z,97462.09
2023-03-18T08:49:42.852Z,97463.47
2023-03-18T08:52:16.988Z,97460.28
2023-03-18T08:54:47.940Z,97457.09
2023-03-18T08:57:18.847Z,97464.78
2023-03-18T08:59:49.916Z,97464.91
2023-03-18T09:02:20.814Z,97470.13
2023-03-18T09:04:51.397Z,97468.41
2023-03-18T09:07:24.592Z,97454.69
2023-03-18T09:09:55.541Z,97459.84
2023-03-18T09:12:25.961Z,97463.72
2023-03-18T09:14:56.346Z,97465.00
2023-03-18T09:17:40.340Z,97463.44
2023-03-18T09:20:19.232Z,97470.56
2023-03-18T09:22:52.551Z,97461.31
2023-03-18T09:25:24.681Z,97465.38
2023-03-18T09:27:55.319Z,97461.78
2023-03-18T09:30:26.545Z,97456.31
2023-03-18T09:32:57.284Z,97466.63
2023-03-18T09:35:29.229Z,97464.16
2023-03-18T09:38:02.399Z,97464.91
2023-03-18T09:40:38.273Z,97463.19
2023-03-18T09:43:34.545Z,97461.84
2023-03-18T09:46:13.017Z,97460.44
2023-03-18T09:49:22.206Z,97463.59
2023-03-18T09:52:03.657Z,97466.34
2023-03-18T09:54:42.660Z,97469.56
2023-03-18T09:57:23.013Z,97477.38
2023-03-18T10:00:00.516Z,97469.66
2023-03-18T10:02:36.894Z,97472.84
2023-03-18T10:05:15.334Z,97473.81
2023-03-18T10:07:48.595Z,97481.47
2023-03-18T10:10:28.868Z,97474.88
2023-03-18T10:13:10.337Z,97482.22
2023-03-18T10:15:45.754Z,97482.03
2023-03-18T10:18:23.924Z,97483.22
2023-03-18T10:21:15.754Z,97488.88
2023-03-18T10:23:58.350Z,97489.19
2023-03-18T10:26:38.452Z,97485.78
2023-03-18T10:29:24.699Z,97496.31
2023-03-18T10:32:09.566Z,97491.97
2023-03-18T10:35:00.765Z,97492.91
2023-03-18T10:37:45.350Z,97490.63
2023-03-18T10:40:20.188Z,97485.28
2023-03-18T10:42:56.578Z,97476.56
2023-03-18T10:45:31.366Z,97490.75
2023-03-18T10:48:10.943Z,97502.88
2023-03-18T10:50:45.926Z,97487.50
2023-03-18T10:53:23.322Z,97484.72
2023-03-18T10:56:02.079Z,97487.94
2023-03-18T10:58:35.985Z,97489.66
2023-03-18T11:01:07.882Z,97495.47
2023-03-18T11:03:44.562Z,97490.28
2023-03-18T11:06:28.896Z,97482.25
2023-03-18T11:09:08.820Z,97477.75
2023-03-18T11:11:43.346Z,97487.91
2023-03-18T11:14:23.050Z,97489.31
2023-03-18T11:17:01.133Z,97475.41
2023-03-18T11:19:35.539Z,97482.47
2023-03-18T11:22:26.205Z,97478.88
2023-03-18T11:25:17.196Z,97488.34
2023-03-18T11:27:51.360Z,97485.34
2023-03-18T11:30:34.300Z,97491.53
2023-03-18T11:33:17.551Z,97482.38
2023-03-18T11:35:55.150Z,97489.13
2023-03-18T11:38:32.256Z,97487.31
2023-03-18T11:41:11.200Z,97482.50
2023-03-18T11:43:42.033Z,97478.75
2023-03-18T11:46:15.728Z,97481.00
2023-03-18T11:48:49.034Z,97470.94
2023-03-18T11:51:44.722Z,97476.56
2023-03-18T11:54:39.507Z,97479.25
2023-03-18T11:57:19.641Z,97475.06
2023-03-18T12:00:05.494Z,97473.84
2023-03-18T12:03:20.034Z,97480.28
2023-03-18T12:06:05.510Z,97468.72
2023-03-18T12:08:50.089Z,97470.97
2023-03-18T12:11:35.475Z,97478.00
2023-03-18T12:14:15.768Z,97473.06
2023-03-18T12:17:03.890Z,97471.91
2023-03-18T12:20:08.708Z,97469.91
2023-03-18T12:23:05.433Z,97477.84
2023-03-18T12:25:59.687Z,97476.59
2023-03-18T12:29:03.137Z,97475.22
2023-03-18T12:31:59.602Z,97476.13
2023-03-18T12:35:07.934Z,97476.84
2023-03-18T12:37:53.791Z,97475.09
2023-03-18T12:40:42.883Z,97467.00
2023-03-18T12:43:37.566Z,97470.44
2023-03-18T12:46:24.774Z,97468.44
2023-03-18T12:49:04.593Z,97467.31
2023-03-18T12:51:46.321Z,97470.28
2023-03-18T12:54:24.298Z,97468.41
2023-03-18T12:57:01.879Z,97459.44
2023-03-18T12:59:39.443Z,97461.31
2023-03-18T13:02:31.679Z,97468.28
2023-03-18T13:05:06.548Z,97460.38
2023-03-18T13:07:47.158Z,97454.97
2023-03-18T13:10:23.561Z,97445.72
2023-03-18T13:12:57.633Z,97450.34
2023-03-18T13:15:35.811Z,97456.44
2023-03-18T13:18:16.496Z,97445.94
2023-03-18T13:20:48.301Z,97439.22
2023-03-18T13:23:44.846Z,97446.09
2023-03-18T13:26:26.700Z,97436.66
2023-03-18T13:29:20.253Z,97430.00
2023-03-18T13:32:00.165Z,97431.31
2023-03-18T13:35:17.797Z,97432.94
2023-03-18T13:38:17.444Z,97420.38
2023-03-18T13:41:32.622Z,97420.03
2023-03-18T13:44:07.850Z,97417.19
2023-03-18T13:46:38.686Z,97419.81
2023-03-18T13:49:21.929Z,97421.41
2023-03-18T13:52:01.215Z,97409.16
2023-03-18T13:54:38.801Z,97414.53
2023-03-18T13:57:49.706Z,97403.34
2023-03-18T14:00:38.499Z,97407.09
2023-03-18T14:03:23.339Z,97402.09
2023-03-18T14:05:56.279Z,97410.16
2023-03-18T14:08:54.670Z,97402.38
2023-03-18T14:11:50.941Z,97402.56
2023-03-18T14:15:08.375Z,97394.13
2023-03-18T14:17:49.283Z,97392.81
2023-03-18T14:20:30.225Z,97390.34
2023-03-18T14:23:39.108Z,97388.44
2023-03-18T14:26:20.523Z,97380.19
2023-03-18T14:28:55.506Z,97384.75
2023-03-18T14:31:39.337Z,97391.13
2023-03-18T14:34:36.064Z,97387.69
2023-03-18T14:37:32.750Z,97382.03
2023-03-18T14:40:11.677Z,97385.78
2023-03-18T14:42:56.777Z,97387.72
2023-03-18T14:45:31.885Z,97386.88
2023-03-18T14:48:10.291Z,97386.06
2023-03-18T14:50:45.732Z,97381.16
2023-03-18T14:53:23.688Z,97386.69
2023-03-18T14:55:57.329Z,97383.44
2023-03-18T14:58:29.428Z,97384.56
2023-03-18T15:01:07.291Z,97392.88
2023-03-18T15:03:45.378Z,97396.84
2023-03-18T15:06:23.258Z,97390.78
2023-03-18T15:08:56.308Z,97389.09
2023-03-18T15:11:30.321Z,97387.97
2023-03-18T15:14:00.835Z,97378.50
2023-03-18T15:16:36.637Z,97385.69
2023-03-18T15:19:09.787Z,97375.50
2023-03-18T15:21:40.715Z,97376.78
2023-03-18T15:24:12.395Z,97387.72
2023-03-18T15:26:44.533Z,97374.59
2023-03-18T15:29:28.997Z,97385.47
2023-03-18T15:32:12.049Z,97387.69
2023-03-18T15:34:47.292Z,97394.19
2023-03-18T15:37:41.244Z,97390.81
2023-03-18T15:40:28.373Z,97399.81
2023-03-18T15:43:01.597Z,97401.47
2023-03-18T15:45:34.387Z,97398.84
2023-03-18T15:48:10.982Z,97403.31
2023-03-18T15:50:56.982Z,97393.41
2023-03-18T15:53:30.368Z,97400.91
2023-03-18T15:56:13.559Z,97397.88
2023-03-18T15:58:44.881Z,97397.88
2023-03-18T16:01:20.891Z,97401.00
2023-03-18T16:03:52.807Z,97404.69
2023-03-18T16:06:26.917Z,97411.75
2023-03-18T16:08:57.501Z,97412.50
2023-03-18T16:11:28.146Z,97412.47
2023-03-18T16:13:59.801Z,97414.91
2023-03-18T16:16:33.687Z,97422.34
2023-03-18T16:19:07.040Z,97419.25
2023-03-18T16:21:40.035Z,97429.50
2023-03-18T16:24:10.759Z,97436.56
2023-03-18T16:26:40.820Z,97433.88
2023-03-18T16:29:18.839Z,97442.22
2023-03-18T16:31:49.462Z,97436.81
2023-03-18T16:34:22.746Z,97443.28
2023-03-18T16:36:56.215Z,97444.97
2023-03-18T16:39:34.093Z,97447.19
2023-03-18T16:42:05.315Z,97443.81
2023-03-18T16:44:38.165Z,97447.25
2023-03-18T16:47:09.491Z,97445.78
2023-03-18T16:49:40.417Z,97453.81
2023-03-18T16:52:16.046Z,97444.34
2023-03-18T16:54:47.187Z,97453.72
2023-03-18T16:57:22.047Z,97457.97
2023-03-18T16:59:56.739Z,97455.63
2023-03-18T17:02:35.856Z,97458.63
2023-03-18T17:05:06.762Z,97461.34
2023-03-18T17:07:39.783Z,97460.13
2023-03-18T17:10:11.936Z,97467.63
2023-03-18T17:12:44.651Z,97467.50
2023-03-18T17:15:20.570Z,97471.91
2023-03-18T17:17:53.159Z,97476.34
2023-03-18T17:20:25.445Z,97479.97
2023-03-18T17:22:59.262Z,97490.78
2023-03-18T17:25:32.207Z,97485.78
2023-03-18T17:28:08.567Z,97494.50
2023-03-18T17:30:41.858Z,97484.09
2023-03-18T17:33:25.987Z,97507.31
2023-03-18T17:35:57.352Z,97503.84
2023-03-18T17:38:30.794Z,97499.34
2023-03-18T17:41:02.613Z,97496.56
2023-03-18T17:43:36.043Z,97500.19
2023-03-18T17:46:08.544Z,97506.84
2023-03-18T17:48:41.178Z,97510.41
2023-03-18T17:51:19.164Z,97503.59
2023-03-18T17:53:56.844Z,97501.88
2023-03-18T17:56:28.032Z,97500.38
2023-03-18T17:58:58.389Z,97499.84
2023-03-18T18:01:32.423Z,97499.59
2023-03-18T18:04:04.306Z,97495.28
2023-03-18T18:06:35.311Z,97497.31
2023-03-18T18:09:08.282Z,97504.38
2023-03-18T18:11:44.270Z,97496.28
2023-03-18T18:14:22.740Z,97496.50
2023-03-18T18:16:54.333Z,97498.28
2023-03-18T18:19:25.205Z,97499.28
2023-03-18T18:21:56.122Z,97499.56
2023-03-18T18:24:33.459Z,97501.06
2023-03-18T18:27:07.333Z,97503.09
2023-03-18T18:29:38.056Z,97507.63
2023-03-18T18:32:12.132Z,97497.50
2023-03-18T18:34:42.510Z,97497.75
2023-03-18T18:37:12.993Z,97503.06
2023-03-18T18:39:45.981Z,97500.28
2023-03-18T18:42:16.690Z,97509.38
2023-03-18T18:44:47.118Z,97514.41
2023-03-18T18:47:22.086Z,97509.31
2023-03-18T18:49:52.893Z,97509.84
2023-03-18T18:52:23.497Z,97511.09
2023-03-18T18:54:56.834Z,97509.78
2023-03-18T18:57:29.733Z,97512.50
2023-03-18T19:00:00.393Z,97509.44
2023-03-18T19:02:39.939Z,97518.25
2023-03-18T19:05:11.871Z,97512.94
2023-03-18T19:07:46.604Z,97527.34
2023-03-18T19:10:21.569Z,97532.16
2023-03-18T19:12:51.905Z,97530.59
2023-03-18T19:15:22.574Z,97529.84
2023-03-18T19:17:53.193Z,97533.84
2023-03-18T19:20:33.518Z,97516.66
2023-03-18T19:23:04.532Z,97521.97
2023-03-18T19:25:37.487Z,97528.56
2023-03-18T19:28:08.243Z,97532.16
2023-03-18T19:30:38.924Z,97524.63
2023-03-18T19:33:18.653Z,97530.94
2023-03-18T19:35:49.474Z,97529.69
2023-03-18T19:38:24.391Z,97526.66
2023-03-18T19:40:57.528Z,97537.75
2023-03-18T19:43:27.878Z,97530.44
2023-03-18T19:45:58.555Z,97529.69
2023-03-18T19:48:30.271Z,97528.38
2023-03-18T19:51:01.441Z,97526.59
2023-03-18T19:53:32.410Z,97527.34
2023-03-18T19:56:08.676Z,97523.84
2023-03-18T19:58:39.537Z,97524.59
2023-03-18T20:01:10.086Z,97529.84
2023-03-18T20:03:40.683Z,97538.38
2023-03-18T20:06:11.136Z,97533.75
2023-03-18T20:08:41.883Z,97532.19
2023-03-18T20:11:21.143Z,97534.28
2023-03-18T20:13:51.997Z,97531.03
2023-03-18T20:16:22.870Z,97537.84
2023-03-18T20:18:54.847Z,97542.09
2023-03-18T20:21:32.367Z,97541.09
2023-03-18T20:24:08.410Z,97545.66
2023-03-18T20:26:42.217Z,97552.47
2023-03-18T20:29:20.989Z,97550.88
2023-03-18T20:31:51.694Z,97546.63
2023-03-18T20:34:23.152Z,97548.09
2023-03-18T20:36:53.850Z,97540.31
2023-03-18T20:39:26.557Z,97541.06
2023-03-18T20:41:59.876Z,97534.47
2023-03-18T20:44:30.773Z,97545.38
2023-03-18T20:47:01.244Z,97541.84
2023-03-18T20:49:31.753Z,97536.84
2023-03-18T20:52:02.677Z,97536.59
2023-03-18T20:54:35.488Z,97529.50
2023-03-18T20:57:09.299Z,97539.31
2023-03-18T20:59:39.859Z,97546.31
2023-03-18T21:02:31.226Z,97548.13
2023-03-18T21:05:04.365Z,97548.38
2023-03-18T21:07:34.803Z,97553.13
2023-03-18T21:10:05.250Z,97551.34
2023-03-18T21:12:39.345Z,97552.34
2023-03-18T21:15:18.180Z,97550.47
2023-03-18T21:17:49.474Z,97550.72
2023-03-18T21:20:23.625Z,97551.16
2023-03-18T21:22:57.368Z,97550.31
2023-03-18T21:25:31.157Z,97554.13
2023-03-18T21:28:05.512Z,97552.41
2023-03-18T21:30:36.235Z,97552.69
2023-03-18T21:33:22.178Z,97550.63
2023-03-18T21:35:56.896Z,97561.47
2023-03-18T21:38:28.500Z,97556.69
2023-03-18T21:40:59.203Z,97560.19
2023-03-18T21:43:37.361Z,97558.66
2023-03-18T21:46:12.976Z,97551.03
2023-03-18T21:48:46.638Z,97550.00
2023-03-18T21:51:38.226Z,97547.91
2023-03-18T21:54:09.747Z,97543.88
2023-03-18T21:56:40.394Z,97544.19
2023-03-18T21:59:13.580Z,97539.38
2023-03-18T22:01:44.124Z,97541.59
2023-03-18T22:04:14.949Z,97538.91
2023-03-18T22:06:48.230Z,97549.44
2023-03-18T22:09:18.697Z,97551.50
2023-03-18T22:11:49.517Z,97554.09
2023-03-18T22:14:22.768Z,97550.22
2023-03-18T22:16:53.244Z,97554.81
2023-03-18T22:19:23.689Z,97551.50
2023-03-18T22:21:54.240Z,97553.34
2023-03-18T22:24:27.613Z,97557.66
2023-03-18T22:26:57.966Z,97559.34
2023-03-18T22:29:31.334Z,97557.25
2023-03-18T22:32:02.363Z,97555.88
2023-03-18T22:34:32.478Z,97549.84
2023-03-18T22:37:02.888Z,97552.91
2023-03-18T22:39:33.222Z,97544.19
2023-03-18T22:42:03.638Z,97547.97
2023-03-18T22:44:36.770Z,97543.69
2023-03-18T22:47:07.752Z,97544.47
2023-03-18T22:49:37.825Z,97545.44
2023-03-18T22:52:08.911Z,97549.44
2023-03-18T22:54:39.223Z,97548.06
2023-03-18T22:57:09.650Z,97549.31
2023-03-18T22:59:42.733Z,97546.81
2023-03-18T23:02:20.959Z,97546.81
2023-03-18T23:04:52.319Z,97543.75
2023-03-18T23:07:33.103Z,97557.66
2023-03-18T23:10:06.072Z,97558.84
2023-03-18T23:12:36.560Z,97548.44
2023-03-18T23:15:11.954Z,97553.00
2023-03-18T23:17:42.570Z,97548.13
2023-03-18T23:20:15.062Z,97554.22
2023-03-18T23:22:46.394Z,97551.50
2023-03-18T23:25:20.048Z,97559.06
2023-03-18T23:27:50.576Z,97557.00
2023-03-18T23:30:23.708Z,97563.38
2023-03-18T23:32:54.272Z,97557.25
2023-03-18T23:35:27.768Z,97565.75
2023-03-18T23:37:58.195Z,97559.88
2023-03-18T23:40:28.938Z,97562.81
2023-03-18T23:42:59.614Z,97565.31
2023-03-18T23:45:33.418Z,97562.75
2023-03-18T23:48:04.243Z,97559.75
2023-03-18T23:50:35.050Z,97558.16
2023-03-18T23:53:05.852Z,97561.56
2023-03-18T23:55:36.467Z,97558.56
2023-03-18T23:58:07.155Z,97558.56
